createdAt,value
2022-08-16T00:00:04.609Z,978.96
2022-08-16T00:00:20.484Z,978.96
2022-08-16T00:00:38.799Z,978.97
2022-08-16T00:00:49.396Z,978.99
2022-08-16T00:01:05.765Z,978.98
2022-08-16T00:01:20.389Z,978.99
2022-08-16T00:01:40.680Z,979
2022-08-16T00:01:52.446Z,978.99
2022-08-16T00:02:12.821Z,979.02
2022-08-16T00:02:24.726Z,979.03
2022-08-16T00:02:41.450Z,979.04
2022-08-16T00:02:56.870Z,979.04
2022-08-16T00:03:13.357Z,979.04
2022-08-16T00:03:30.546Z,979.07
2022-08-16T00:03:46.652Z,979.05
2022-08-16T00:04:01.211Z,979.06
2022-08-16T00:04:16.796Z,979.06
2022-08-16T00:04:33.588Z,979.08
2022-08-16T00:04:51.133Z,979.08
2022-08-16T00:05:05.142Z,979.09
2022-08-16T00:05:20.501Z,979.1
2022-08-16T00:05:37.005Z,979.1
2022-08-16T00:05:57.365Z,979.1
2022-08-16T00:06:10.000Z,979.11
2022-08-16T00:06:24.737Z,979.11
2022-08-16T00:06:40.843Z,979.1
2022-08-16T00:06:57.371Z,979.12
2022-08-16T00:07:16.061Z,979.13
2022-08-16T00:07:29.128Z,979.13
2022-08-16T00:07:44.577Z,979.12
2022-08-16T00:08:01.060Z,979.13
2022-08-16T00:08:36.823Z,979.16
2022-08-16T00:08:37.100Z,979.14
2022-08-16T00:08:48.819Z,979.17
2022-08-16T00:09:05.210Z,979.18
2022-08-16T00:09:20.506Z,979.18
2022-08-16T00:09:38.678Z,979.18
2022-08-16T00:09:57.347Z,979.2
2022-08-16T00:10:09.549Z,979.2
2022-08-16T00:10:25.106Z,979.21
2022-08-16T00:10:40.190Z,979.22
2022-08-16T00:10:56.863Z,979.21
2022-08-16T00:11:15.948Z,979.23
2022-08-16T00:11:29.537Z,979.26
2022-08-16T00:11:45.305Z,979.25
2022-08-16T00:12:01.591Z,979.26
2022-08-16T00:12:18.729Z,979.27
2022-08-16T00:12:32.595Z,979.29
2022-08-16T00:12:49.981Z,979.29
2022-08-16T00:13:04.932Z,979.31
2022-08-16T00:13:21.429Z,979.32
2022-08-16T00:13:41.636Z,979.33
2022-08-16T00:13:55.592Z,979.33
2022-08-16T00:14:08.975Z,979.34
2022-08-16T00:14:29.120Z,979.37
2022-08-16T00:14:40.501Z,979.36
2022-08-16T00:14:56.863Z,979.37
2022-08-16T00:15:13.334Z,979.38
2022-08-16T00:15:51.099Z,979.37
2022-08-16T00:15:51.482Z,979.38
2022-08-16T00:16:00.864Z,979.38
2022-08-16T00:17:01.302Z,979.39
2022-08-16T00:17:01.660Z,979.4
2022-08-16T00:17:05.839Z,979.39
2022-08-16T00:17:16.054Z,979.4
2022-08-16T00:17:21.815Z,979.41
2022-08-16T00:17:56.887Z,979.4
2022-08-16T00:17:56.983Z,979.41
2022-08-16T00:18:09.922Z,979.41
2022-08-16T00:18:29.713Z,979.4
2022-08-16T00:18:41.571Z,979.4
2022-08-16T00:18:56.827Z,979.42
2022-08-16T00:19:13.453Z,979.43
2022-08-16T00:19:28.539Z,979.44
2022-08-16T00:19:45.873Z,979.43
2022-08-16T00:20:01.137Z,979.42
2022-08-16T00:20:16.096Z,979.42
2022-08-16T00:20:33.425Z,979.41
2022-08-16T00:20:48.318Z,979.42
2022-08-16T00:21:04.702Z,979.44
2022-08-16T00:21:20.280Z,979.43
2022-08-16T00:21:37.127Z,979.43
2022-08-16T00:21:55.236Z,979.44
2022-08-16T00:22:13.759Z,979.44
2022-08-16T00:22:25.446Z,979.45
2022-08-16T00:22:42.814Z,979.44
2022-08-16T00:22:58.215Z,979.44
2022-08-16T00:23:12.458Z,979.45
2022-08-16T00:23:34.999Z,979.46
2022-08-16T00:23:46.292Z,979.45
2022-08-16T00:24:04.750Z,979.44
2022-08-16T00:24:32.851Z,979.44
2022-08-16T00:24:34.681Z,979.44
2022-08-16T00:24:50.168Z,979.45
2022-08-16T00:25:05.750Z,979.44
2022-08-16T00:25:20.504Z,979.44
2022-08-16T00:26:33.720Z,979.47
2022-08-16T00:26:33.872Z,979.44
2022-08-16T00:26:34.886Z,979.47
2022-08-16T00:26:35.816Z,979.47
2022-08-16T00:26:45.039Z,979.48
2022-08-16T00:26:57.693Z,979.47
2022-08-16T00:27:12.461Z,979.48
2022-08-16T00:27:30.792Z,979.48
2022-08-16T00:27:44.347Z,979.48
2022-08-16T00:28:01.682Z,979.48
2022-08-16T00:28:16.942Z,979.49
2022-08-16T00:28:31.985Z,979.5
2022-08-16T00:28:49.434Z,979.49
2022-08-16T00:29:04.856Z,979.49
2022-08-16T00:29:23.820Z,979.5
2022-08-16T00:29:36.615Z,979.5
2022-08-16T00:30:00.818Z,979.52
2022-08-16T00:30:25.966Z,979.53
2022-08-16T00:30:28.843Z,979.53
2022-08-16T00:30:41.111Z,979.51
2022-08-16T00:30:59.207Z,979.52
2022-08-16T00:31:13.110Z,979.51
2022-08-16T00:31:59.079Z,979.53
2022-08-16T00:31:59.597Z,979.51
2022-08-16T00:32:05.699Z,979.52
2022-08-16T00:32:18.105Z,979.52
2022-08-16T00:32:33.808Z,979.52
2022-08-16T00:32:49.632Z,979.52
2022-08-16T00:33:04.995Z,979.53
2022-08-16T00:33:21.085Z,979.54
2022-08-16T00:33:36.424Z,979.53
2022-08-16T00:33:52.432Z,979.55
2022-08-16T00:34:09.015Z,979.56
2022-08-16T00:34:43.516Z,979.55
2022-08-16T00:34:52.439Z,979.56
2022-08-16T00:35:00.574Z,979.54
2022-08-16T00:35:15.537Z,979.57
2022-08-16T00:35:28.395Z,979.59
2022-08-16T00:35:45.425Z,979.6
2022-08-16T00:36:00.768Z,979.59
2022-08-16T00:36:17.851Z,979.64
2022-08-16T00:36:33.273Z,979.63
2022-08-16T00:36:48.748Z,979.65
2022-08-16T00:37:04.540Z,979.62
2022-08-16T00:37:20.750Z,979.62
2022-08-16T00:37:56.700Z,979.63
2022-08-16T00:37:58.981Z,979.67
2022-08-16T00:38:40.709Z,979.66
2022-08-16T00:38:41.431Z,979.67
2022-08-16T00:38:43.552Z,979.7
2022-08-16T00:38:56.434Z,979.68
2022-08-16T00:39:15.431Z,979.69
2022-08-16T00:39:29.270Z,979.7
2022-08-16T00:39:44.465Z,979.71
2022-08-16T00:40:00.658Z,979.71
2022-08-16T00:40:33.995Z,979.71
2022-08-16T00:40:36.778Z,979.74
2022-08-16T00:40:50.765Z,979.74
2022-08-16T00:41:05.960Z,979.73
2022-08-16T00:41:20.683Z,979.71
2022-08-16T00:41:38.241Z,979.72
2022-08-16T00:41:53.030Z,979.71
2022-08-16T00:42:10.172Z,979.73
2022-08-16T00:42:30.001Z,979.73
2022-08-16T00:42:40.001Z,979.73
2022-08-16T00:42:56.690Z,979.74
2022-08-16T00:43:19.133Z,979.72
2022-08-16T00:43:43.368Z,979.74
2022-08-16T00:43:44.924Z,979.75
2022-08-16T00:44:01.810Z,979.74
2022-08-16T00:44:16.858Z,979.71
2022-08-16T00:44:32.854Z,979.7
2022-08-16T00:44:48.637Z,979.7
2022-08-16T00:45:08.160Z,979.71
2022-08-16T00:45:21.380Z,979.7
2022-08-16T00:45:35.895Z,979.71
2022-08-16T00:45:58.498Z,979.71
2022-08-16T00:46:22.239Z,979.73
2022-08-16T00:46:33.870Z,979.73
2022-08-16T00:46:53.012Z,979.73
2022-08-16T00:47:06.064Z,979.72
2022-08-16T00:47:12.758Z,979.7
2022-08-16T00:47:29.932Z,979.72
2022-08-16T00:47:49.002Z,979.74
2022-08-16T00:48:00.791Z,979.76
2022-08-16T00:48:30.417Z,979.72
2022-08-16T00:48:44.187Z,979.71
2022-08-16T00:48:48.946Z,979.74
2022-08-16T00:49:05.972Z,979.72
2022-08-16T00:49:21.770Z,979.72
2022-08-16T00:49:39.366Z,979.72
2022-08-16T00:49:56.292Z,979.71
2022-08-16T00:50:11.873Z,979.7
2022-08-16T00:50:36.496Z,979.71
2022-08-16T00:50:40.859Z,979.74
2022-08-16T00:50:56.863Z,979.75
2022-08-16T00:51:15.983Z,979.77
2022-08-16T00:51:29.854Z,979.76
2022-08-16T00:51:45.282Z,979.76
2022-08-16T00:52:00.413Z,979.77
2022-08-16T00:52:29.564Z,979.76
2022-08-16T00:52:32.508Z,979.81
2022-08-16T00:52:51.014Z,979.82
2022-08-16T00:53:04.977Z,979.81
2022-08-16T00:53:21.863Z,979.8
2022-08-16T00:53:36.551Z,979.81
2022-08-16T00:53:55.300Z,979.83
2022-08-16T00:54:11.698Z,979.83
2022-08-16T00:54:24.861Z,979.86
2022-08-16T00:54:40.946Z,979.86
2022-08-16T00:54:56.920Z,979.87
2022-08-16T00:55:16.311Z,979.91
2022-08-16T00:55:38.054Z,979.93
2022-08-16T00:55:44.027Z,979.93
2022-08-16T00:56:01.255Z,979.94
2022-08-16T00:56:56.187Z,979.94
2022-08-16T00:56:56.340Z,979.97
2022-08-16T00:56:57.921Z,979.97
2022-08-16T00:57:05.443Z,979.98
2022-08-16T00:57:20.096Z,980
2022-08-16T00:57:58.953Z,980
2022-08-16T00:58:00.176Z,979.99
2022-08-16T00:58:13.174Z,980.01
2022-08-16T00:58:34.376Z,980.02
2022-08-16T00:58:40.731Z,980.02
2022-08-16T00:58:56.547Z,980.04
2022-08-16T00:59:12.463Z,980.06
2022-08-16T00:59:28.633Z,980.06
2022-08-16T00:59:49.608Z,980.05
2022-08-16T01:00:01.620Z,980.06
2022-08-16T01:00:20.133Z,980.07
2022-08-16T01:00:33.617Z,980.09
2022-08-16T01:00:54.291Z,980.1
2022-08-16T01:01:07.991Z,980.09
2022-08-16T01:01:22.462Z,980.12
2022-08-16T01:01:36.626Z,980.12
2022-08-16T01:01:52.980Z,980.13
2022-08-16T01:02:30.203Z,980.12
2022-08-16T01:02:31.365Z,980.17
2022-08-16T01:02:40.090Z,980.17
2022-08-16T01:02:57.409Z,980.19
2022-08-16T01:03:12.890Z,980.19
2022-08-16T01:03:31.621Z,980.21
2022-08-16T01:03:44.575Z,980.2
2022-08-16T01:03:59.815Z,980.23
2022-08-16T01:04:29.355Z,980.24
2022-08-16T01:04:32.433Z,980.24
2022-08-16T01:05:09.020Z,980.24
2022-08-16T01:05:10.944Z,980.25
2022-08-16T01:05:23.976Z,980.29
2022-08-16T01:05:37.036Z,980.27
2022-08-16T01:05:53.296Z,980.26
2022-08-16T01:06:32.677Z,980.26
2022-08-16T01:06:39.633Z,980.29
2022-08-16T01:06:49.218Z,980.29
2022-08-16T01:07:01.877Z,980.3
2022-08-16T01:07:13.221Z,980.3
2022-08-16T01:07:28.837Z,980.32
2022-08-16T01:07:51.712Z,980.32
2022-08-16T01:08:00.660Z,980.31
2022-08-16T01:08:35.259Z,980.31
2022-08-16T01:08:35.838Z,980.33
2022-08-16T01:08:49.637Z,980.32
2022-08-16T01:09:04.883Z,980.33
2022-08-16T01:09:20.433Z,980.32
2022-08-16T01:09:37.254Z,980.33
2022-08-16T01:09:52.371Z,980.34
2022-08-16T01:10:16.172Z,980.36
2022-08-16T01:10:32.002Z,980.37
2022-08-16T01:10:40.800Z,980.36
2022-08-16T01:10:56.477Z,980.38
2022-08-16T01:11:12.906Z,980.39
2022-08-16T01:11:30.066Z,980.37
2022-08-16T01:11:53.931Z,980.37
2022-08-16T01:12:02.473Z,980.4
2022-08-16T01:12:26.602Z,980.42
2022-08-16T01:12:33.166Z,980.43
2022-08-16T01:12:48.678Z,980.43
2022-08-16T01:13:05.490Z,980.42
2022-08-16T01:13:20.737Z,980.42
2022-08-16T01:13:37.078Z,980.41
2022-08-16T01:13:53.084Z,980.42
2022-08-16T01:14:09.012Z,980.43
2022-08-16T01:14:25.109Z,980.46
2022-08-16T01:14:39.741Z,980.44
2022-08-16T01:14:57.256Z,980.43
2022-08-16T01:15:12.218Z,980.43
2022-08-16T01:15:28.599Z,980.43
2022-08-16T01:15:44.759Z,980.44
2022-08-16T01:16:02.984Z,980.45
2022-08-16T01:16:19.892Z,980.46
2022-08-16T01:16:33.261Z,980.45
2022-08-16T01:16:48.773Z,980.46
2022-08-16T01:17:03.626Z,980.46
2022-08-16T01:17:20.853Z,980.46
2022-08-16T01:17:36.615Z,980.47
2022-08-16T01:17:56.004Z,980.49
2022-08-16T01:18:08.120Z,980.48
2022-08-16T01:18:40.720Z,980.47
2022-08-16T01:18:41.493Z,980.48
2022-08-16T01:18:56.734Z,980.49
2022-08-16T01:19:12.905Z,980.49
2022-08-16T01:19:29.312Z,980.47
2022-08-16T01:19:44.355Z,980.47
2022-08-16T01:20:00.242Z,980.49
2022-08-16T01:20:24.479Z,980.48
2022-08-16T01:20:33.990Z,980.49
2022-08-16T01:20:48.923Z,980.49
2022-08-16T01:21:03.865Z,980.48
2022-08-16T01:21:22.451Z,980.47
2022-08-16T01:21:36.165Z,980.48
2022-08-16T01:21:54.530Z,980.5
2022-08-16T01:22:47.552Z,980.51
2022-08-16T01:22:56.587Z,980.51
2022-08-16T01:22:57.620Z,980.52
2022-08-16T01:22:58.842Z,980.52
2022-08-16T01:23:13.252Z,980.52
2022-08-16T01:23:28.072Z,980.52
2022-08-16T01:23:57.944Z,980.52
2022-08-16T01:24:01.464Z,980.52
2022-08-16T01:24:52.180Z,980.54
2022-08-16T01:24:52.437Z,980.54
2022-08-16T01:24:53.723Z,980.54
2022-08-16T01:25:04.662Z,980.53
2022-08-16T01:25:21.645Z,980.54
2022-08-16T01:25:37.146Z,980.55
2022-08-16T01:25:59.972Z,980.54
2022-08-16T01:26:34.515Z,980.53
2022-08-16T01:26:34.673Z,980.53
2022-08-16T01:26:40.603Z,980.54
2022-08-16T01:26:56.568Z,980.55
2022-08-16T01:27:15.052Z,980.53
2022-08-16T01:27:28.891Z,980.53
2022-08-16T01:27:45.130Z,980.53
2022-08-16T01:28:00.918Z,980.56
2022-08-16T01:28:20.112Z,980.54
2022-08-16T01:28:38.253Z,980.54
2022-08-16T01:28:49.587Z,980.55
2022-08-16T01:29:05.299Z,980.54
2022-08-16T01:29:20.722Z,980.54
2022-08-16T01:29:57.110Z,980.53
2022-08-16T01:29:58.324Z,980.54
2022-08-16T01:30:19.570Z,980.54
2022-08-16T01:30:26.136Z,980.54
2022-08-16T01:30:40.102Z,980.54
2022-08-16T01:30:56.734Z,980.53
2022-08-16T01:31:12.138Z,980.53
2022-08-16T01:31:30.987Z,980.53
2022-08-16T01:31:44.552Z,980.51
2022-08-16T01:32:01.116Z,980.52
2022-08-16T01:32:31.618Z,980.52
2022-08-16T01:32:34.458Z,980.53
2022-08-16T01:32:59.641Z,980.55
2022-08-16T01:33:14.372Z,980.55
2022-08-16T01:33:20.693Z,980.53
2022-08-16T01:33:36.229Z,980.52
2022-08-16T01:33:52.319Z,980.51
2022-08-16T01:34:08.609Z,980.51
2022-08-16T01:34:27.874Z,980.5
2022-08-16T01:34:47.276Z,980.5
2022-08-16T01:34:57.095Z,980.49
2022-08-16T01:35:16.821Z,980.5
2022-08-16T01:35:29.195Z,980.51
2022-08-16T01:35:44.739Z,980.52
2022-08-16T01:36:00.207Z,980.52
2022-08-16T01:36:17.717Z,980.52
2022-08-16T01:36:33.499Z,980.49
2022-08-16T01:36:58.217Z,980.49
2022-08-16T01:37:04.339Z,980.5
2022-08-16T01:37:21.301Z,980.48
2022-08-16T01:37:36.116Z,980.46
2022-08-16T01:37:53.925Z,980.46
2022-08-16T01:38:08.465Z,980.46
2022-08-16T01:38:28.514Z,980.45
2022-08-16T01:38:41.044Z,980.44
2022-08-16T01:38:57.360Z,980.43
2022-08-16T01:39:12.426Z,980.43
2022-08-16T01:39:28.370Z,980.44
2022-08-16T01:39:44.760Z,980.44
2022-08-16T01:40:00.565Z,980.44
2022-08-16T01:40:17.197Z,980.45
2022-08-16T01:40:31.922Z,980.44
2022-08-16T01:40:49.368Z,980.45
2022-08-16T01:41:05.989Z,980.44
2022-08-16T01:41:21.274Z,980.42
2022-08-16T01:41:42.017Z,980.41
2022-08-16T01:41:51.545Z,980.39
2022-08-16T01:42:12.203Z,980.39
2022-08-16T01:42:25.452Z,980.38
2022-08-16T01:42:42.393Z,980.38
2022-08-16T01:42:58.715Z,980.39
2022-08-16T01:43:13.125Z,980.39
2022-08-16T01:43:28.796Z,980.37
2022-08-16T01:43:44.930Z,980.36
2022-08-16T01:44:01.636Z,980.35
2022-08-16T01:44:18.574Z,980.35
2022-08-16T01:44:37.499Z,980.33
2022-08-16T01:44:47.812Z,980.32
2022-08-16T01:45:04.432Z,980.31
2022-08-16T01:45:20.098Z,980.31
2022-08-16T01:45:40.753Z,980.31
2022-08-16T01:45:54.094Z,980.31
2022-08-16T01:46:29.887Z,980.29
2022-08-16T01:46:38.170Z,980.3
2022-08-16T01:46:41.560Z,980.3
2022-08-16T01:46:56.147Z,980.28
2022-08-16T01:47:11.902Z,980.26
2022-08-16T01:47:29.456Z,980.24
2022-08-16T01:47:49.339Z,980.23
2022-08-16T01:48:01.229Z,980.25
2022-08-16T01:48:19.985Z,980.26
2022-08-16T01:48:33.324Z,980.25
2022-08-16T01:48:48.448Z,980.25
2022-08-16T01:49:04.575Z,980.22
2022-08-16T01:49:20.274Z,980.22
2022-08-16T01:49:42.888Z,980.2
2022-08-16T01:50:42.276Z,980.22
2022-08-16T01:50:42.997Z,980.22
2022-08-16T01:50:43.556Z,980.21
2022-08-16T01:51:05.081Z,980.2
2022-08-16T01:51:08.302Z,980.2
2022-08-16T01:51:16.459Z,980.21
2022-08-16T01:51:29.314Z,980.19
2022-08-16T01:51:44.278Z,980.19
2022-08-16T01:52:00.729Z,980.18
2022-08-16T01:52:29.207Z,980.18
2022-08-16T01:52:32.416Z,980.18
2022-08-16T01:52:48.289Z,980.19
2022-08-16T01:53:03.812Z,980.18
2022-08-16T01:53:21.275Z,980.17
2022-08-16T01:53:35.825Z,980.17
2022-08-16T01:53:55.884Z,980.14
2022-08-16T01:54:08.239Z,980.14
2022-08-16T01:54:30.620Z,980.15
2022-08-16T01:54:40.420Z,980.14
2022-08-16T01:54:55.957Z,980.16
2022-08-16T01:55:12.435Z,980.17
2022-08-16T01:55:33.668Z,980.17
2022-08-16T01:55:53.781Z,980.19
2022-08-16T01:55:59.698Z,980.17
2022-08-16T01:56:25.006Z,980.16
2022-08-16T01:56:32.542Z,980.17
2022-08-16T01:56:50.513Z,980.17
2022-08-16T01:57:04.217Z,980.17
2022-08-16T01:57:22.748Z,980.19
2022-08-16T01:57:38.184Z,980.18
2022-08-16T01:57:53.584Z,980.19
2022-08-16T01:58:10.862Z,980.19
2022-08-16T01:58:23.909Z,980.18
2022-08-16T01:58:40.474Z,980.17
2022-08-16T01:58:55.908Z,980.18
2022-08-16T01:59:15.687Z,980.18
2022-08-16T01:59:27.919Z,980.19
2022-08-16T01:59:45.480Z,980.2
2022-08-16T02:00:00.611Z,980.21
2022-08-16T02:00:19.727Z,980.18
2022-08-16T02:00:33.007Z,980.16
2022-08-16T02:00:48.444Z,980.17
2022-08-16T02:01:04.671Z,980.15
2022-08-16T02:01:21.375Z,980.16
2022-08-16T02:01:36.805Z,980.16
2022-08-16T02:01:59.448Z,980.15
2022-08-16T02:02:27.503Z,980.16
2022-08-16T02:02:27.540Z,980.15
2022-08-16T02:02:45.007Z,980.16
2022-08-16T02:02:56.275Z,980.16
2022-08-16T02:03:13.037Z,980.17
2022-08-16T02:03:28.275Z,980.16
2022-08-16T02:03:44.291Z,980.16
2022-08-16T02:04:10.641Z,980.16
2022-08-16T02:04:48.258Z,980.17
2022-08-16T02:04:48.395Z,980.17
2022-08-16T02:04:54.490Z,980.17
2022-08-16T02:05:04.469Z,980.15
2022-08-16T02:05:20.785Z,980.16
2022-08-16T02:05:37.243Z,980.17
2022-08-16T02:05:52.266Z,980.18
2022-08-16T02:06:08.059Z,980.15
2022-08-16T02:06:33.802Z,980.16
2022-08-16T02:06:40.148Z,980.15
2022-08-16T02:06:56.352Z,980.14
2022-08-16T02:07:12.116Z,980.14
2022-08-16T02:07:28.726Z,980.15
2022-08-16T02:07:44.213Z,980.15
2022-08-16T02:08:00.679Z,980.13
2022-08-16T02:08:32.751Z,980.17
2022-08-16T02:08:33.933Z,980.16
2022-08-16T02:08:48.488Z,980.15
2022-08-16T02:09:05.693Z,980.15
2022-08-16T02:09:20.234Z,980.15
2022-08-16T02:09:35.642Z,980.16
2022-08-16T02:10:08.608Z,980.13
2022-08-16T02:10:25.864Z,980.12
2022-08-16T02:10:40.739Z,980.13
2022-08-16T02:10:57.007Z,980.14
2022-08-16T02:11:12.755Z,980.13
2022-08-16T02:11:42.991Z,980.13
2022-08-16T02:11:48.184Z,980.13
2022-08-16T02:12:00.083Z,980.13
2022-08-16T02:12:50.570Z,980.13
2022-08-16T02:12:51.062Z,980.13
2022-08-16T02:12:51.725Z,980.13
2022-08-16T02:13:04.166Z,980.13
2022-08-16T02:13:20.951Z,980.11
2022-08-16T02:13:41.854Z,980.13
2022-08-16T02:13:54.790Z,980.11
2022-08-16T02:14:18.166Z,980.13
2022-08-16T02:14:26.480Z,980.11
2022-08-16T02:14:40.803Z,980.11
2022-08-16T02:14:55.830Z,980.13
2022-08-16T02:15:12.485Z,980.13
2022-08-16T02:15:28.567Z,980.11
2022-08-16T02:15:44.503Z,980.11
2022-08-16T02:16:00.642Z,980.11
2022-08-16T02:16:18.817Z,980.12
2022-08-16T02:16:32.507Z,980.09
2022-08-16T02:16:48.149Z,980.09
2022-08-16T02:17:04.745Z,980.09
2022-08-16T02:17:19.843Z,980.09
2022-08-16T02:17:38.331Z,980.09
2022-08-16T02:17:52.548Z,980.09
2022-08-16T02:18:12.398Z,980.1
2022-08-16T02:18:23.874Z,980.11
2022-08-16T02:18:41.107Z,980.1
2022-08-16T02:18:56.331Z,980.09
2022-08-16T02:19:16.442Z,980.08
2022-08-16T02:19:58.817Z,980.08
2022-08-16T02:19:59.561Z,980.09
2022-08-16T02:20:00.740Z,980.08
2022-08-16T02:20:16.409Z,980.08
2022-08-16T02:20:32.907Z,980.08
2022-08-16T02:20:48.574Z,980.08
2022-08-16T02:21:04.914Z,980.09
2022-08-16T02:21:31.281Z,980.08
2022-08-16T02:21:36.726Z,980.08
2022-08-16T02:22:09.291Z,980.07
2022-08-16T02:22:33.524Z,980.05
2022-08-16T02:22:33.597Z,980.06
2022-08-16T02:22:39.801Z,980.06
2022-08-16T02:22:56.859Z,980.07
2022-08-16T02:23:11.776Z,980.07
2022-08-16T02:23:29.589Z,980.07
2022-08-16T02:23:44.303Z,980.06
2022-08-16T02:24:01.911Z,980.06
2022-08-16T02:24:30.720Z,980.06
2022-08-16T02:24:40.794Z,980.05
2022-08-16T02:24:48.836Z,980.04
2022-08-16T02:25:03.803Z,980.04
2022-08-16T02:25:20.623Z,980.04
2022-08-16T02:25:50.702Z,980.04
2022-08-16T02:25:54.032Z,980.06
2022-08-16T02:26:07.717Z,980.06
2022-08-16T02:26:26.314Z,980.04
2022-08-16T02:26:39.838Z,980.04
2022-08-16T02:26:57.258Z,980.05
2022-08-16T02:27:12.110Z,980.05
2022-08-16T02:27:27.293Z,980.05
2022-08-16T02:27:44.663Z,980.04
2022-08-16T02:28:00.464Z,980.04
2022-08-16T02:28:19.213Z,980.03
2022-08-16T02:28:32.430Z,980.03
2022-08-16T02:28:49.750Z,980.03
2022-08-16T02:29:03.844Z,980.03
2022-08-16T02:29:20.930Z,980.01
2022-08-16T02:29:36.286Z,980.02
2022-08-16T02:29:52.834Z,980.01
2022-08-16T02:30:08.378Z,980.01
2022-08-16T02:30:37.076Z,980.02
2022-08-16T02:30:44.243Z,980
2022-08-16T02:30:56.087Z,979.99
2022-08-16T02:31:13.064Z,979.99
2022-08-16T02:32:02.634Z,979.99
2022-08-16T02:32:03.255Z,979.97
2022-08-16T02:32:03.379Z,979.99
2022-08-16T02:32:49.849Z,979.97
2022-08-16T02:32:51.100Z,979.96
2022-08-16T02:33:02.369Z,979.98
2022-08-16T02:33:04.502Z,979.96
2022-08-16T02:33:19.394Z,979.96
2022-08-16T02:33:43.418Z,979.95
2022-08-16T02:33:51.771Z,979.95
2022-08-16T02:34:08.259Z,979.94
2022-08-16T02:34:32.955Z,979.96
2022-08-16T02:34:44.989Z,979.94
2022-08-16T02:34:57.054Z,979.94
2022-08-16T02:35:12.949Z,979.94
2022-08-16T02:35:28.187Z,979.93
2022-08-16T02:35:54.397Z,979.93
2022-08-16T02:36:00.393Z,979.92
2022-08-16T02:36:47.432Z,979.92
2022-08-16T02:36:48.032Z,979.93
2022-08-16T02:36:50.852Z,979.92
2022-08-16T02:37:04.472Z,979.91
2022-08-16T02:37:20.951Z,979.91
2022-08-16T02:37:51.222Z,979.91
2022-08-16T02:37:53.265Z,979.91
2022-08-16T02:38:09.285Z,979.91
2022-08-16T02:38:24.181Z,979.9
2022-08-16T02:38:40.259Z,979.91
2022-08-16T02:38:56.231Z,979.9
2022-08-16T02:39:12.142Z,979.89
2022-08-16T02:39:28.994Z,979.88
2022-08-16T02:39:43.971Z,979.87
2022-08-16T02:40:01.267Z,979.86
2022-08-16T02:40:16.520Z,979.85
2022-08-16T02:40:35.766Z,979.86
2022-08-16T02:40:49.169Z,979.85
2022-08-16T02:41:07.299Z,979.84
2022-08-16T02:41:20.241Z,979.83
2022-08-16T02:41:37.350Z,979.84
2022-08-16T02:41:53.066Z,979.82
2022-08-16T02:42:09.372Z,979.82
2022-08-16T02:42:25.754Z,979.81
2022-08-16T02:42:40.484Z,979.8
2022-08-16T02:42:56.860Z,979.8
2022-08-16T02:43:11.779Z,979.79
2022-08-16T02:43:28.529Z,979.79
2022-08-16T02:43:44.173Z,979.78
2022-08-16T02:44:00.021Z,979.79
2022-08-16T02:44:16.300Z,979.78
2022-08-16T02:44:36.823Z,979.78
2022-08-16T02:44:51.214Z,979.78
2022-08-16T02:45:03.771Z,979.79
2022-08-16T02:45:20.706Z,979.79
2022-08-16T02:45:36.483Z,979.79
2022-08-16T02:45:53.012Z,979.78
2022-08-16T02:46:08.503Z,979.78
2022-08-16T02:46:33.501Z,979.77
2022-08-16T02:46:39.890Z,979.77
2022-08-16T02:46:58.754Z,979.75
2022-08-16T02:47:12.094Z,979.76
2022-08-16T02:47:28.364Z,979.75
2022-08-16T02:48:01.573Z,979.74
2022-08-16T02:48:01.712Z,979.75
2022-08-16T02:48:29.805Z,979.73
2022-08-16T02:48:31.994Z,979.74
2022-08-16T02:48:49.684Z,979.74
2022-08-16T02:49:04.027Z,979.73
2022-08-16T02:49:20.390Z,979.73
2022-08-16T02:49:58.923Z,979.71
2022-08-16T02:49:59.404Z,979.71
2022-08-16T02:50:54.493Z,979.69
2022-08-16T02:50:54.853Z,979.7
2022-08-16T02:51:04.060Z,979.69
2022-08-16T02:51:06.520Z,979.7
2022-08-16T02:51:12.504Z,979.68
2022-08-16T02:51:28.062Z,979.68
2022-08-16T02:51:44.539Z,979.67
2022-08-16T02:52:00.446Z,979.67
2022-08-16T02:52:24.405Z,979.65
2022-08-16T02:52:32.631Z,979.64
2022-08-16T02:52:47.740Z,979.65
2022-08-16T02:53:05.049Z,979.63
2022-08-16T02:53:23.585Z,979.63
2022-08-16T02:53:36.826Z,979.62
2022-08-16T02:53:52.163Z,979.63
2022-08-16T02:54:09.186Z,979.63
2022-08-16T02:54:24.187Z,979.64
2022-08-16T02:54:40.779Z,979.64
2022-08-16T02:54:57.574Z,979.62
2022-08-16T02:55:11.889Z,979.62
2022-08-16T02:55:40.673Z,979.6
2022-08-16T02:55:43.933Z,979.6
2022-08-16T02:56:00.672Z,979.61
2022-08-16T02:56:16.084Z,979.61
2022-08-16T02:56:32.619Z,979.59
2022-08-16T02:56:47.883Z,979.59
2022-08-16T02:57:04.736Z,979.58
2022-08-16T02:57:21.741Z,979.58
2022-08-16T02:57:35.888Z,979.58
2022-08-16T02:57:54.433Z,979.58
2022-08-16T02:58:07.946Z,979.58
2022-08-16T02:58:25.001Z,979.57
2022-08-16T02:58:40.437Z,979.58
2022-08-16T02:58:56.357Z,979.56
2022-08-16T02:59:14.339Z,979.56
2022-08-16T02:59:39.766Z,979.56
2022-08-16T02:59:44.615Z,979.56
2022-08-16T03:00:00.130Z,979.56
2022-08-16T03:00:34.195Z,979.54
2022-08-16T03:00:35.015Z,979.54
2022-08-16T03:00:50.279Z,979.55
2022-08-16T03:01:04.129Z,979.57
2022-08-16T03:01:24.585Z,979.58
2022-08-16T03:01:37.000Z,979.59
2022-08-16T03:01:52.689Z,979.59
2022-08-16T03:02:09.058Z,979.58
2022-08-16T03:02:39.982Z,979.6
2022-08-16T03:02:41.594Z,979.59
2022-08-16T03:02:56.460Z,979.6
2022-08-16T03:03:12.778Z,979.61
2022-08-16T03:04:28.833Z,979.63
2022-08-16T03:04:29.126Z,979.62
2022-08-16T03:04:39.927Z,979.63
2022-08-16T03:04:41.435Z,979.63
2022-08-16T03:04:50.873Z,979.63
2022-08-16T03:04:52.581Z,979.63
2022-08-16T03:05:05.693Z,979.64
2022-08-16T03:05:20.569Z,979.64
2022-08-16T03:05:37.375Z,979.65
2022-08-16T03:05:52.598Z,979.64
2022-08-16T03:06:38.940Z,979.66
2022-08-16T03:06:42.350Z,979.65
2022-08-16T03:06:56.716Z,979.66
2022-08-16T03:07:12.419Z,979.67
2022-08-16T03:07:28.565Z,979.68
2022-08-16T03:07:50.866Z,979.68
2022-08-16T03:08:00.611Z,979.69
2022-08-16T03:08:51.071Z,979.69
2022-08-16T03:08:51.817Z,979.71
2022-08-16T03:08:52.404Z,979.7
2022-08-16T03:09:04.651Z,979.72
2022-08-16T03:09:21.072Z,979.72
2022-08-16T03:09:36.709Z,979.71
2022-08-16T03:09:52.954Z,979.72
2022-08-16T03:10:08.767Z,979.72
2022-08-16T03:10:23.884Z,979.72
2022-08-16T03:10:41.209Z,979.73
2022-08-16T03:10:55.852Z,979.74
2022-08-16T03:11:18.051Z,979.73
2022-08-16T03:11:35.501Z,979.74
2022-08-16T03:11:43.796Z,979.76
2022-08-16T03:12:02.486Z,979.75
2022-08-16T03:12:17.813Z,979.73
2022-08-16T03:12:37.705Z,979.74
2022-08-16T03:12:56.394Z,979.74
2022-08-16T03:13:04.467Z,979.74
2022-08-16T03:13:20.599Z,979.75
2022-08-16T03:13:40.304Z,979.75
2022-08-16T03:13:53.048Z,979.75
2022-08-16T03:14:08.446Z,979.75
2022-08-16T03:14:25.040Z,979.77
2022-08-16T03:14:39.781Z,979.78
2022-08-16T03:14:56.487Z,979.77
2022-08-16T03:15:13.609Z,979.78
2022-08-16T03:15:29.031Z,979.79
2022-08-16T03:15:44.470Z,979.79
2022-08-16T03:16:00.811Z,979.81
2022-08-16T03:16:17.932Z,979.81
2022-08-16T03:16:38.110Z,979.82
2022-08-16T03:16:59.806Z,979.81
2022-08-16T03:17:04.246Z,979.81
2022-08-16T03:17:20.603Z,979.82
2022-08-16T03:17:36.137Z,979.82
2022-08-16T03:17:53.332Z,979.84
2022-08-16T03:18:12.643Z,979.84
2022-08-16T03:18:34.670Z,979.82
2022-08-16T03:18:41.805Z,979.82
2022-08-16T03:18:55.473Z,979.84
2022-08-16T03:19:13.673Z,979.84
2022-08-16T03:19:47.837Z,979.84
2022-08-16T03:19:48.433Z,979.83
2022-08-16T03:20:02.725Z,979.84
2022-08-16T03:20:18.347Z,979.85
2022-08-16T03:20:34.220Z,979.86